Decoded Metar for LFMV (AVIGNON in FRANCE) (IATA:AVN) | Meteo·Mobile Aviation Weather
aviador You're here:

LFMV Decoded Metar

AVIGNON in FRANCE
Report Time2019-02-17 07:00:00
UTC Time2019-02-17 07:22:11
Flight Rules lifr LIFR
WindCalm
Visibility7000 m
Phenomena:Fog
Clouds:Broken 002 Hf
Ceiling200 ft
Temp-2°C (ISA -17)
Dew Point-2°C (100% RH)
AAT-4.3°C
QNH1029 hPa
Density Alt-2,405 ft
Elevation125 ft
Report Wrong Elevation
Raw Report
LFMV 170700Z AUTO 00000KT 7000 BKN002 M02/M02 Q1029 TEMPO 0500 FG
VV///=

Extra information for LFMV:More info

Metar Taf Metar & Taf Last 4 Metars F.Rules Stats Wind Profile Meteogram Temp Stats Airport Information Weather charts Add Link Nearby VenuesMetar ALERT Operation Metar Decoded Social comments